Time;durP1;ratioP1;P1;durP2;ratioP2;P2;SDS_P1;SDS_P2;PMS_P1;PMS_P2;Temp;Humidity;BMP_temperature;BMP_pressure;BME280_temperature;BME280_humidity;BME280_pressure;Samples;Min_cycle;Max_cycle;Signal;HPM_P1;HPM_P2
2023/09/26 00:01:48;;;;;;;14.02;8.63;;;13.30;99.90;;;;;;6306666;22;20022;-84
2023/09/26 00:04:14;;;;;;;15.07;8.50;;;12.20;99.90;;;;;;6305152;22;20388;-84
2023/09/26 00:06:40;;;;;;;14.15;8.35;;;12.30;99.90;;;;;;6306682;22;20027;-85
2023/09/26 00:09:05;;;;;;;17.67;8.95;;;13.10;99.90;;;;;;6306049;22;20012;-85
2023/09/26 00:11:33;;;;;;;13.52;8.82;;;12.10;99.90;;;;;;6306277;22;20494;-85
2023/09/26 00:13:59;;;;;;;13.60;8.70;;;13.50;99.90;;;;;;6306719;22;20011;-86
2023/09/26 00:16:24;;;;;;;14.43;8.40;;;13.20;99.90;;;;;;6305815;22;20395;-85
2023/09/26 00:18:50;;;;;;;18.00;9.52;;;12.00;99.90;;;;;;6305638;22;20011;-85
2023/09/26 00:21:16;;;;;;;15.85;8.73;;;12.00;99.90;;;;;;6306341;22;20015;-85
2023/09/26 00:23:41;;;;;;;14.25;8.82;;;12.20;99.90;;;;;;6309567;22;20012;-85
2023/09/26 00:26:07;;;;;;;14.05;8.95;;;11.80;99.90;;;;;;6306903;22;20324;-85
2023/09/26 00:28:33;;;;;;;14.45;9.32;;;11.80;99.90;;;;;;6306955;22;20373;-85
2023/09/26 00:31:04;;;;;;;15.73;8.95;;;12.20;99.90;;;;;;6305939;22;20015;-85
2023/09/26 00:33:33;;;;;;;14.52;9.38;;;12.00;99.90;;;;;;6306272;22;20015;-85
2023/09/26 00:36:07;;;;;;;14.02;9.07;;;11.70;99.90;;;;;;6308353;22;20334;-85
2023/09/26 00:38:33;;;;;;;15.15;9.43;;;11.60;99.90;;;;;;6307762;22;20331;-85
2023/09/26 00:40:58;;;;;;;15.20;9.85;;;12.60;99.90;;;;;;6305777;22;20442;-85
2023/09/26 00:43:24;;;;;;;15.07;9.30;;;11.60;99.90;;;;;;6307827;22;20026;-85
2023/09/26 00:45:55;;;;;;;15.93;9.40;;;12.60;99.90;;;;;;6305758;22;20015;-85
2023/09/26 00:48:23;;;;;;;14.20;9.02;;;11.50;99.90;;;;;;6306197;22;20077;-85
2023/09/26 00:50:49;;;;;;;16.60;9.25;;;12.40;99.90;;;;;;6305585;22;20040;-85
2023/09/26 00:53:15;;;;;;;13.60;8.80;;;11.50;99.90;;;;;;6305209;22;20409;-85
2023/09/26 00:55:42;;;;;;;15.77;9.52;;;11.40;99.90;;;;;;6306448;22;20015;-86
2023/09/26 00:58:11;;;;;;;17.55;9.45;;;11.40;99.90;;;;;;6305780;22;20093;-85
2023/09/26 01:00:38;;;;;;;16.17;9.75;;;11.40;99.90;;;;;;6305500;22;20019;-86
2023/09/26 01:03:04;;;;;;;15.93;9.15;;;12.50;99.90;;;;;;6305693;22;20446;-85
2023/09/26 01:05:30;;;;;;;18.10;9.63;;;11.40;99.90;;;;;;6305611;22;20026;-85
2023/09/26 01:07:56;;;;;;;14.43;9.95;;;11.40;99.90;;;;;;6305283;22;20045;-85
2023/09/26 01:10:22;;;;;;;16.08;9.45;;;11.40;99.90;;;;;;6305854;22;20048;-85
2023/09/26 01:12:47;;;;;;;15.40;9.73;;;11.30;99.90;;;;;;6305344;22;20043;-85
2023/09/26 01:15:28;;;;;;;15.57;9.75;;;11.30;99.90;;;;;;6305164;22;20007;-85
2023/09/26 01:17:54;;;;;;;16.90;9.48;;;11.30;99.90;;;;;;6306192;22;20039;-85
2023/09/26 01:20:21;;;;;;;15.65;9.68;;;11.20;99.90;;;;;;6304713;22;20308;-85
2023/09/26 01:22:49;;;;;;;15.38;9.73;;;11.20;99.90;;;;;;6306267;22;20015;-85
2023/09/26 01:25:15;;;;;;;14.13;9.00;;;11.10;99.90;;;;;;6305613;22;20018;-85
2023/09/26 01:27:41;;;;;;;17.63;9.65;;;11.10;99.90;;;;;;6304677;22;20047;-85
2023/09/26 01:30:08;;;;;;;16.10;10.20;;;11.10;99.90;;;;;;6305278;22;20431;-86
2023/09/26 01:32:34;;;;;;;16.02;10.20;;;11.10;99.90;;;;;;6305685;22;20385;-85
2023/09/26 01:34:59;;;;;;;14.63;9.75;;;11.10;99.90;;;;;;6304255;22;20023;-86
2023/09/26 01:37:25;;;;;;;16.27;9.95;;;11.70;99.90;;;;;;6305210;22;20046;-85
2023/09/26 01:39:50;;;;;;;17.05;9.50;;;11.10;99.90;;;;;;6305684;22;20043;-85
2023/09/26 01:42:16;;;;;;;15.60;9.70;;;11.10;99.90;;;;;;6304904;22;20401;-85
2023/09/26 01:44:42;;;;;;;20.02;10.30;;;11.10;99.90;;;;;;6305746;22;20018;-85
2023/09/26 01:47:14;;;;;;;14.70;9.70;;;11.30;99.90;;;;;;6305191;22;20023;-86
2023/09/26 01:49:41;;;;;;;16.05;9.88;;;11.10;99.90;;;;;;6305090;22;20098;-86
2023/09/26 01:52:06;;;;;;;16.10;9.90;;;11.00;99.90;;;;;;6304720;22;20508;-86
2023/09/26 01:54:32;;;;;;;16.77;10.05;;;11.00;99.90;;;;;;6305496;22;20015;-86
2023/09/26 01:56:57;;;;;;;15.55;9.45;;;11.00;99.90;;;;;;6304893;22;20018;-86
2023/09/26 01:59:23;;;;;;;15.95;10.32;;;11.10;99.90;;;;;;6305377;22;20015;-86
2023/09/26 02:01:49;;;;;;;15.98;10.32;;;11.00;99.90;;;;;;6305276;22;20015;-86
2023/09/26 02:04:14;;;;;;;14.57;9.30;;;11.00;99.90;;;;;;6303654;22;20015;-85
2023/09/26 02:06:40;;;;;;;16.33;10.52;;;11.10;99.90;;;;;;6305025;22;20041;-86
2023/09/26 02:09:05;;;;;;;17.42;9.77;;;11.00;99.90;;;;;;6304605;22;20082;-86
2023/09/26 02:11:31;;;;;;;14.88;10.38;;;11.00;99.90;;;;;;6305108;22;20072;-86
2023/09/26 02:13:56;;;;;;;15.45;9.82;;;11.00;99.90;;;;;;6305439;22;20441;-86
2023/09/26 02:16:22;;;;;;;17.52;10.98;;;11.00;99.90;;;;;;6304353;22;20122;-86
2023/09/26 02:18:48;;;;;;;17.25;10.32;;;11.00;99.90;;;;;;6305557;22;20018;-86
2023/09/26 02:21:17;;;;;;;17.38;10.10;;;11.00;99.90;;;;;;6305113;22;20320;-86
2023/09/26 02:23:42;;;;;;;17.52;9.95;;;11.80;99.90;;;;;;6304581;22;20095;-86
2023/09/26 02:26:08;;;;;;;14.43;9.80;;;11.00;99.90;;;;;;6305155;22;20043;-86
2023/09/26 02:28:34;;;;;;;15.77;10.05;;;11.00;99.90;;;;;;6305178;22;20023;-86
2023/09/26 02:30:59;;;;;;;14.95;9.40;;;12.00;99.90;;;;;;6303829;22;20343;-86
2023/09/26 02:33:25;;;;;;;15.85;9.60;;;10.90;99.90;;;;;;6309238;22;20022;-86
2023/09/26 02:35:51;;;;;;;14.93;9.88;;;10.90;99.90;;;;;;6310285;22;20023;-86
2023/09/26 02:38:16;;;;;;;14.68;9.40;;;10.90;99.90;;;;;;6309830;22;20018;-86
2023/09/26 02:40:42;;;;;;;21.27;10.30;;;11.00;99.90;;;;;;6310881;22;20015;-86
2023/09/26 02:43:08;;;;;;;15.15;9.60;;;10.90;99.90;;;;;;6309810;22;20049;-86
2023/09/26 02:45:34;;;;;;;15.73;9.63;;;10.90;99.90;;;;;;6309784;22;20014;-86
2023/09/26 02:47:59;;;;;;;16.63;9.82;;;10.90;99.90;;;;;;6310724;22;20046;-86
2023/09/26 02:50:25;;;;;;;16.17;10.43;;;11.30;99.90;;;;;;6309440;22;20011;-86
2023/09/26 02:52:52;;;;;;;14.88;9.93;;;11.20;99.90;;;;;;6309894;22;20030;-86
2023/09/26 02:55:20;;;;;;;15.30;9.93;;;11.00;99.90;;;;;;6310177;22;20488;-86
2023/09/26 02:57:45;;;;;;;17.13;10.45;;;10.80;99.90;;;;;;6309839;22;20384;-86
2023/09/26 03:00:16;;;;;;;16.08;10.68;;;10.80;99.90;;;;;;6309563;22;20015;-86
2023/09/26 03:02:45;;;;;;;17.63;10.13;;;10.70;99.90;;;;;;6310625;22;20415;-86
2023/09/26 03:05:10;;;;;;;16.02;10.18;;;11.10;99.90;;;;;;6310048;22;20015;-86
2023/09/26 03:07:37;;;;;;;16.98;10.38;;;10.80;99.90;;;;;;6309426;22;20338;-86
2023/09/26 03:10:03;;;;;;;15.93;10.38;;;10.70;99.90;;;;;;6310258;22;20022;-86
2023/09/26 03:12:29;;;;;;;16.27;10.43;;;10.70;99.90;;;;;;6308467;22;20015;-86
2023/09/26 03:14:55;;;;;;;18.95;10.90;;;10.70;99.90;;;;;;6310279;22;20446;-85
2023/09/26 03:17:21;;;;;;;15.95;10.30;;;10.70;99.90;;;;;;6309892;22;20015;-86
2023/09/26 03:19:47;;;;;;;16.40;10.10;;;10.70;99.90;;;;;;6309388;22;20025;-86
2023/09/26 03:22:13;;;;;;;18.17;10.60;;;10.70;99.90;;;;;;6337743;22;20021;-86
2023/09/26 03:24:39;;;;;;;15.63;9.77;;;11.20;99.90;;;;;;6310432;22;20377;-86
2023/09/26 03:27:04;;;;;;;14.68;9.90;;;10.70;99.90;;;;;;6309262;22;20073;-86
2023/09/26 03:29:30;;;;;;;18.23;10.70;;;10.70;99.90;;;;;;6310588;22;20019;-86
2023/09/26 03:31:55;;;;;;;14.70;9.85;;;10.60;99.90;;;;;;6310398;22;20050;-86
2023/09/26 03:34:21;;;;;;;15.85;9.95;;;10.60;99.90;;;;;;6336595;22;20014;-86
2023/09/26 03:36:47;;;;;;;16.17;10.50;;;10.80;99.90;;;;;;6338208;22;20011;-86
2023/09/26 03:39:12;;;;;;;16.83;10.32;;;10.60;99.90;;;;;;6309645;22;20050;-86
2023/09/26 03:41:38;;;;;;;16.73;10.10;;;10.60;99.90;;;;;;6309550;22;20014;-86
2023/09/26 03:44:04;;;;;;;16.15;10.63;;;11.00;99.90;;;;;;6337450;22;20018;-86
2023/09/26 03:46:32;;;;;;;19.30;10.27;;;10.60;99.90;;;;;;6309923;22;20029;-86
2023/09/26 03:48:57;;;;;;;16.42;10.60;;;10.80;99.90;;;;;;6337110;22;20015;-86
2023/09/26 03:51:23;;;;;;;16.73;11.02;;;10.50;99.90;;;;;;6309862;22;20029;-86
2023/09/26 03:53:49;;;;;;;17.85;10.75;;;10.50;99.90;;;;;;6310646;22;20052;-86
2023/09/26 03:56:14;;;;;;;19.00;11.38;;;10.70;99.90;;;;;;6311242;22;20018;-86
2023/09/26 03:58:40;;;;;;;17.77;10.80;;;10.40;99.90;;;;;;6312077;22;20059;-85
2023/09/26 04:01:13;;;;;;;15.20;10.10;;;10.40;99.90;;;;;;6311344;22;20103;-85
2023/09/26 04:03:40;;;;;;;19.48;10.88;;;11.50;99.90;;;;;;6311262;22;20060;-86
2023/09/26 04:06:06;;;;;;;18.13;11.48;;;10.40;99.90;;;;;;6310620;22;20018;-86
2023/09/26 04:08:31;;;;;;;18.08;11.40;;;11.40;99.90;;;;;;6310992;22;20022;-86
2023/09/26 04:10:57;;;;;;;17.92;10.98;;;10.30;99.90;;;;;;6311419;22;20029;-86
2023/09/26 04:13:23;;;;;;;19.23;11.85;;;10.30;99.90;;;;;;6311324;22;20030;-86
2023/09/26 04:15:49;;;;;;;17.23;11.73;;;11.30;99.90;;;;;;6311131;22;20015;-86
2023/09/26 04:18:15;;;;;;;16.90;10.88;;;10.30;99.90;;;;;;6338967;22;20059;-86
2023/09/26 04:20:41;;;;;;;16.83;10.55;;;10.60;99.90;;;;;;6339461;22;20090;-86
2023/09/26 04:23:06;;;;;;;18.65;11.63;;;10.30;99.90;;;;;;6310519;22;20019;-86
2023/09/26 04:25:34;;;;;;;17.92;11.70;;;10.30;99.90;;;;;;6311789;22;20029;-86
2023/09/26 04:28:00;;;;;;;18.55;11.93;;;10.30;99.90;;;;;;6311465;22;20019;-86
2023/09/26 04:30:26;;;;;;;18.60;12.07;;;11.00;99.90;;;;;;6310272;22;20081;-86
2023/09/26 04:32:52;;;;;;;18.95;11.93;;;10.30;99.90;;;;;;6311083;22;20046;-86
2023/09/26 04:35:18;;;;;;;17.52;11.93;;;11.00;99.90;;;;;;6310752;22;20044;-85
2023/09/26 04:37:43;;;;;;;19.08;12.40;;;10.30;99.90;;;;;;6311103;22;20022;-86
2023/09/26 04:40:10;;;;;;;19.27;11.73;;;10.60;99.90;;;;;;6311728;22;20015;-85
2023/09/26 04:42:39;;;;;;;18.95;12.32;;;10.30;99.90;;;;;;6311274;22;20019;-85
2023/09/26 04:45:05;;;;;;;18.13;10.38;;;11.10;99.90;;;;;;6310246;22;20014;-86
2023/09/26 04:47:31;;;;;;;18.83;11.95;;;10.30;99.90;;;;;;6311513;22;20015;-86
2023/09/26 04:49:57;;;;;;;18.80;11.70;;;10.30;99.90;;;;;;6310989;22;20493;-86
2023/09/26 04:52:22;;;;;;;17.27;11.98;;;10.30;99.90;;;;;;6310379;22;20018;-86
2023/09/26 04:54:51;;;;;;;18.95;12.43;;;10.20;99.90;;;;;;6311733;22;20037;-86
2023/09/26 04:57:16;;;;;;;17.10;11.05;;;10.30;99.90;;;;;;6338576;22;20327;-86
2023/09/26 04:59:42;;;;;;;16.55;11.30;;;10.80;99.90;;;;;;6310690;22;20010;-86
2023/09/26 05:02:08;;;;;;;19.35;11.93;;;10.40;99.90;;;;;;6310628;22;20023;-86
2023/09/26 05:04:33;;;;;;;20.83;12.57;;;10.40;99.90;;;;;;6310960;22;20019;-86
2023/09/26 05:06:59;;;;;;;18.00;12.00;;;10.80;99.90;;;;;;6310464;22;20019;-86
2023/09/26 05:09:25;;;;;;;16.52;10.32;;;10.40;99.90;;;;;;6310924;22;20014;-85
2023/09/26 05:11:50;;;;;;;17.45;10.30;;;11.30;99.90;;;;;;6311281;22;20015;-86
2023/09/26 05:14:16;;;;;;;18.08;10.73;;;10.60;99.90;;;;;;6310096;22;20388;-86
2023/09/26 05:16:41;;;;;;;17.45;11.48;;;11.00;99.90;;;;;;6311282;22;20335;-86
2023/09/26 05:19:07;;;;;;;18.50;11.30;;;10.80;99.90;;;;;;6309766;22;20022;-86
2023/09/26 05:21:33;;;;;;;17.80;11.50;;;10.50;99.90;;;;;;6280662;22;20027;-88
2023/09/26 05:23:58;;;;;;;18.02;11.52;;;10.50;99.90;;;;;;6274978;22;20107;-86
2023/09/26 05:26:24;;;;;;;21.58;13.15;;;10.60;99.90;;;;;;6275406;22;20050;-85
2023/09/26 05:28:49;;;;;;;18.65;11.55;;;10.90;99.90;;;;;;6276498;22;20026;-84
2023/09/26 05:31:16;;;;;;;19.95;12.13;;;10.70;99.90;;;;;;6274607;22;20022;-84
2023/09/26 05:33:42;;;;;;;20.58;11.88;;;10.70;99.90;;;;;;6274429;22;20443;-84
2023/09/26 05:36:08;;;;;;;21.67;12.85;;;10.80;99.90;;;;;;6274215;22;20134;-85
2023/09/26 05:38:33;;;;;;;18.85;12.40;;;10.90;99.90;;;;;;6276389;22;20062;-85
2023/09/26 05:40:59;;;;;;;19.90;12.07;;;11.80;99.90;;;;;;6274510;22;20443;-85
2023/09/26 05:43:24;;;;;;;20.77;12.82;;;11.20;99.90;;;;;;6274324;22;20324;-85
2023/09/26 05:45:53;;;;;;;20.02;11.82;;;11.10;99.90;;;;;;6274774;22;20419;-86
2023/09/26 05:48:19;;;;;;;19.52;13.00;;;11.10;99.90;;;;;;6273747;22;20027;-85
2023/09/26 05:50:45;;;;;;;21.85;13.25;;;11.80;99.90;;;;;;6274860;22;20027;-86
2023/09/26 05:53:12;;;;;;;19.80;12.48;;;11.90;99.90;;;;;;6275601;22;20091;-86
2023/09/26 05:55:37;;;;;;;20.98;12.77;;;11.80;99.90;;;;;;6273840;22;20019;-86
2023/09/26 05:58:03;;;;;;;20.38;12.70;;;12.60;99.90;;;;;;6274210;22;20478;-85
2023/09/26 06:00:29;;;;;;;18.60;12.57;;;11.40;99.90;;;;;;6274537;22;20020;-85
2023/09/26 06:02:54;;;;;;;18.48;12.00;;;11.90;99.90;;;;;;6274003;22;20016;-86
2023/09/26 06:05:20;;;;;;;19.10;12.48;;;12.50;99.90;;;;;;6274168;22;20027;-86
2023/09/26 06:07:46;;;;;;;21.60;11.98;;;12.00;99.90;;;;;;6274226;22;20069;-85
2023/09/26 06:10:11;;;;;;;21.35;12.38;;;12.10;99.90;;;;;;6273321;22;20058;-85
2023/09/26 06:12:38;;;;;;;19.33;12.75;;;12.50;99.90;;;;;;6274402;22;20401;-86
2023/09/26 06:15:11;;;;;;;19.92;12.23;;;11.70;99.90;;;;;;6273918;22;20478;-86
2023/09/26 06:17:39;;;;;;;20.27;13.00;;;11.70;99.90;;;;;;6275353;22;20012;-86
2023/09/26 06:20:09;;;;;;;25.27;12.05;;;12.90;99.90;;;;;;6280268;22;20047;-85
2023/09/26 06:22:35;;;;;;;22.27;12.60;;;11.80;99.90;;;;;;6304935;22;20030;-86
2023/09/26 06:25:02;;;;;;;23.88;12.93;;;12.80;99.90;;;;;;6305452;22;20014;-86
2023/09/26 06:27:27;;;;;;;18.95;11.60;;;13.20;99.90;;;;;;6304418;22;20021;-84
2023/09/26 06:29:53;;;;;;;21.65;13.40;;;12.70;99.90;;;;;;6304806;22;20050;-84
2023/09/26 06:32:19;;;;;;;17.58;11.45;;;12.00;99.90;;;;;;6305144;22;20050;-84
2023/09/26 06:34:44;;;;;;;18.52;12.00;;;12.00;99.90;;;;;;6305068;22;20016;-84
2023/09/26 06:37:10;;;;;;;17.02;10.90;;;12.00;99.90;;;;;;6304438;22;20015;-84
2023/09/26 06:39:36;;;;;;;18.95;11.90;;;12.00;99.90;;;;;;6305364;22;20047;-84
2023/09/26 06:42:02;;;;;;;18.98;11.18;;;12.50;99.90;;;;;;6304744;22;20026;-84
2023/09/26 06:44:29;;;;;;;27.08;12.82;;;11.40;99.90;;;;;;6303997;22;20335;-84
2023/09/26 06:46:54;;;;;;;20.40;11.70;;;12.20;99.90;;;;;;6304561;22;20019;-83
2023/09/26 06:49:20;;;;;;;19.35;11.55;;;12.40;99.90;;;;;;6304441;22;20514;-84
2023/09/26 06:51:46;;;;;;;20.42;12.00;;;13.40;99.90;;;;;;6304450;22;20394;-84
2023/09/26 06:54:11;;;;;;;20.58;12.30;;;12.50;99.90;;;;;;6305216;22;20038;-84
2023/09/26 06:56:37;;;;;;;18.80;11.13;;;12.30;99.90;;;;;;6304607;22;20075;-84
2023/09/26 06:59:04;;;;;;;19.90;11.65;;;12.30;99.90;;;;;;6304284;22;20016;-84
2023/09/26 07:01:30;;;;;;;17.27;11.20;;;12.40;99.90;;;;;;6305217;22;20026;-84
2023/09/26 07:03:55;;;;;;;17.17;11.38;;;12.40;99.90;;;;;;6305039;22;20012;-84
2023/09/26 07:06:21;;;;;;;16.70;11.30;;;12.60;99.90;;;;;;6303979;22;20458;-84
2023/09/26 07:08:46;;;;;;;18.48;11.65;;;12.50;99.90;;;;;;6301609;22;20046;-84
2023/09/26 07:11:12;;;;;;;21.42;10.68;;;13.10;99.90;;;;;;6304217;22;20015;-84
2023/09/26 07:13:39;;;;;;;21.75;11.65;;;13.70;99.90;;;;;;6304130;22;20011;-84
2023/09/26 07:16:05;;;;;;;22.38;10.85;;;12.80;99.90;;;;;;6304598;22;20007;-84
2023/09/26 07:18:32;;;;;;;18.77;10.57;;;13.30;99.90;;;;;;6304682;22;20060;-84
2023/09/26 07:21:05;;;;;;;17.27;10.63;;;13.00;99.90;;;;;;6303890;22;20015;-84
2023/09/26 07:23:37;;;;;;;16.00;10.40;;;13.30;99.90;;;;;;6304552;22;20458;-84
2023/09/26 07:26:08;;;;;;;19.30;10.23;;;13.20;99.90;;;;;;6304193;22;20023;-84
2023/09/26 07:28:33;;;;;;;15.57;10.45;;;13.20;99.90;;;;;;6305529;22;20027;-84
2023/09/26 07:30:59;;;;;;;17.90;10.77;;;13.30;99.90;;;;;;6306928;22;20051;-84
2023/09/26 07:33:26;;;;;;;16.08;9.20;;;13.40;99.90;;;;;;6305655;22;20017;-84
2023/09/26 07:35:52;;;;;;;15.85;9.85;;;14.40;99.90;;;;;;6306109;22;20007;-84
2023/09/26 07:38:17;;;;;;;18.85;10.52;;;13.50;99.90;;;;;;6304634;22;20514;-83
2023/09/26 07:40:43;;;;;;;14.88;9.38;;;13.50;99.90;;;;;;6305893;22;20019;-83
2023/09/26 07:43:09;;;;;;;17.10;10.35;;;13.50;99.90;;;;;;6305897;22;20019;-83
2023/09/26 07:45:38;;;;;;;19.20;10.40;;;14.50;99.90;;;;;;6305323;22;20457;-82
2023/09/26 07:48:04;;;;;;;17.40;9.65;;;13.60;99.90;;;;;;6305232;22;20046;-82
2023/09/26 07:50:30;;;;;;;15.57;9.88;;;13.60;99.90;;;;;;6308225;22;20011;-82
2023/09/26 07:52:56;;;;;;;15.27;9.10;;;13.80;99.90;;;;;;6306607;22;20068;-83
2023/09/26 07:55:21;;;;;;;16.80;9.88;;;13.80;99.90;;;;;;6303747;22;20110;-82
2023/09/26 07:57:47;;;;;;;16.73;10.10;;;13.80;99.90;;;;;;6306353;22;20019;-83
2023/09/26 08:00:13;;;;;;;15.68;9.50;;;14.00;99.90;;;;;;6305440;22;20030;-82
2023/09/26 08:02:39;;;;;;;16.52;10.27;;;14.10;99.90;;;;;;6306214;22;20056;-82
2023/09/26 08:05:06;;;;;;;16.67;10.38;;;14.20;99.90;;;;;;6306086;22;20091;-82
2023/09/26 08:07:32;;;;;;;16.17;9.73;;;14.30;99.90;;;;;;6306233;22;20015;-82
2023/09/26 08:10:00;;;;;;;16.00;10.45;;;15.10;99.90;;;;;;6305177;22;20018;-82
2023/09/26 08:12:27;;;;;;;14.82;9.93;;;14.40;99.90;;;;;;6305815;22;20339;-82
2023/09/26 08:14:53;;;;;;;15.18;9.55;;;14.60;99.90;;;;;;6306695;22;20199;-82
2023/09/26 08:17:19;;;;;;;15.32;9.48;;;14.60;99.90;;;;;;6305867;22;20015;-82
2023/09/26 08:19:45;;;;;;;15.95;9.50;;;14.70;99.90;;;;;;6306240;22;20057;-83
2023/09/26 08:22:11;;;;;;;16.10;9.18;;;14.80;99.90;;;;;;6305315;22;20019;-82
2023/09/26 08:24:36;;;;;;;15.40;9.38;;;15.40;99.90;;;;;;6308296;22;20385;-82
2023/09/26 08:27:02;;;;;;;14.15;8.98;;;15.40;99.90;;;;;;6306022;22;20031;-83
2023/09/26 08:29:28;;;;;;;17.00;10.00;;;15.00;99.90;;;;;;6305438;22;20342;-82
2023/09/26 08:31:54;;;;;;;14.88;9.95;;;15.70;99.90;;;;;;6306184;22;20019;-82
2023/09/26 08:39:30;;;;;;;15.15;9.60;;;15.30;99.90;;;;;;6310895;22;20030;-82
2023/09/26 08:41:58;;;;;;;16.45;9.73;;;15.40;99.90;;;;;;6306195;22;20015;-82
2023/09/26 08:44:24;;;;;;;14.52;9.45;;;15.50;99.90;;;;;;6304559;22;20431;-84
2023/09/26 08:46:50;;;;;;;14.38;9.07;;;15.70;99.90;;;;;;6306142;22;20050;-85
2023/09/26 08:49:16;;;;;;;13.85;9.18;;;15.80;99.90;;;;;;6305001;22;20387;-86
2023/09/26 08:51:42;;;;;;;18.40;10.13;;;16.00;99.90;;;;;;6305192;22;20473;-85
2023/09/26 08:54:07;;;;;;;14.48;8.50;;;16.20;99.90;;;;;;6305931;22;20043;-85
2023/09/26 08:56:33;;;;;;;14.27;9.05;;;16.10;99.90;;;;;;6305639;22;20069;-84
2023/09/26 08:59:01;;;;;;;14.13;8.85;;;16.20;99.90;;;;;;6305259;22;20065;-84
2023/09/26 09:01:42;;;;;;;13.95;8.48;;;16.20;99.90;;;;;;6278067;22;20027;-85
2023/09/26 09:04:09;;;;;;;13.23;8.70;;;16.20;99.90;;;;;;6274684;22;20066;-84
2023/09/26 09:06:35;;;;;;;15.15;9.07;;;16.40;99.90;;;;;;6275165;22;20090;-84
2023/09/26 09:09:09;;;;;;;13.13;8.75;;;16.30;99.90;;;;;;6274494;22;20447;-85
2023/09/26 09:11:34;;;;;;;14.40;8.77;;;16.40;99.90;;;;;;6274548;22;20377;-86
2023/09/26 09:14:00;;;;;;;15.38;8.82;;;16.40;99.90;;;;;;6275048;22;20470;-85
2023/09/26 09:16:26;;;;;;;15.52;9.20;;;16.40;99.90;;;;;;6274505;22;20095;-85
2023/09/26 09:18:57;;;;;;;13.85;8.95;;;16.80;99.90;;;;;;6274682;22;20393;-85
2023/09/26 09:21:30;;;;;;;15.15;8.93;;;16.20;99.90;;;;;;6274838;22;20020;-85
2023/09/26 09:24:01;;;;;;;14.52;8.73;;;16.50;99.90;;;;;;6273564;22;20011;-86
2023/09/26 09:26:32;;;;;;;13.25;8.85;;;16.60;99.90;;;;;;6270843;22;20051;-85
2023/09/26 09:29:18;;;;;;;13.23;8.38;;;16.60;99.90;;;;;;6273860;22;20331;-86
2023/09/26 09:31:44;;;;;;;14.50;8.45;;;16.70;99.90;;;;;;6273222;22;20016;-85
2023/09/26 09:34:10;;;;;;;14.23;8.65;;;16.90;99.90;;;;;;6272980;22;20103;-84
2023/09/26 09:36:40;;;;;;;14.70;8.10;;;17.00;99.90;;;;;;6275137;22;20012;-85
2023/09/26 09:39:09;;;;;;;14.32;8.25;;;17.20;99.90;;;;;;6274345;22;20366;-86
2023/09/26 09:41:41;;;;;;;12.88;7.82;;;17.40;99.90;;;;;;6273759;22;20023;-86
2023/09/26 09:44:07;;;;;;;13.75;8.32;;;17.50;99.90;;;;;;6276757;22;20073;-87
2023/09/26 09:46:40;;;;;;;13.10;7.97;;;17.50;99.90;;;;;;6276371;22;20370;-86
2023/09/26 09:49:09;;;;;;;;;;;17.50;99.90;;;;;;6275193;22;20051;-87
2023/09/26 09:51:36;;;;;;;13.73;8.55;;;17.60;99.90;;;;;;6274477;22;20246;-87
2023/09/26 09:54:04;;;;;;;12.55;8.18;;;17.80;99.90;;;;;;6276001;22;20023;-87
2023/09/26 09:56:43;;;;;;;15.07;8.63;;;18.00;99.90;;;;;;6275032;22;20327;-84
2023/09/26 09:59:12;;;;;;;14.50;8.27;;;17.80;99.90;;;;;;6274207;22;20137;-85
2023/09/26 10:01:45;;;;;;;13.35;8.25;;;18.00;99.90;;;;;;6289858;22;20011;-85
2023/09/26 10:04:15;;;;;;;12.43;7.65;;;18.00;99.90;;;;;;6274304;22;20019;-85
2023/09/26 10:06:42;;;;;;;12.13;7.15;;;18.10;99.90;;;;;;6274689;22;20431;-85
2023/09/26 10:09:09;;;;;;;12.48;7.30;;;18.30;99.90;;;;;;6273375;22;20094;-85
2023/09/26 10:11:35;;;;;;;12.20;7.03;;;18.70;99.90;;;;;;6274574;22;20451;-85
2023/09/26 10:14:05;;;;;;;12.68;7.60;;;18.60;99.90;;;;;;6274406;22;20439;-85
2023/09/26 10:16:31;;;;;;;11.93;7.88;;;18.90;99.90;;;;;;6274000;22;20019;-84
2023/09/26 10:18:59;;;;;;;13.40;7.32;;;19.00;99.90;;;;;;6274376;22;20130;-86
2023/09/26 10:21:30;;;;;;;12.10;7.03;;;19.30;99.90;;;;;;6273754;22;20382;-86
2023/09/26 10:24:08;;;;;;;13.27;6.93;;;19.40;99.90;;;;;;6274389;22;20067;-82
2023/09/26 10:26:39;;;;;;;12.95;7.65;;;19.60;99.90;;;;;;6274357;22;20073;-82
2023/09/26 10:29:27;;;;;;;12.50;7.72;;;19.80;99.90;;;;;;6273521;22;20008;-82
2023/09/26 10:31:56;;;;;;;12.07;6.93;;;19.80;99.90;;;;;;6274568;22;20020;-82
2023/09/26 10:34:44;;;;;;;12.05;7.00;;;19.80;99.90;;;;;;6273340;22;20045;-82
2023/09/26 10:37:18;;;;;;;13.52;7.50;;;19.80;99.90;;;;;;6273728;22;20008;-82
2023/09/26 10:39:44;;;;;;;11.35;7.13;;;19.80;99.90;;;;;;6274644;22;20039;-82
2023/09/26 10:42:21;;;;;;;11.15;6.70;;;19.80;99.90;;;;;;6273502;22;20019;-82
2023/09/26 10:44:49;;;;;;;11.80;7.07;;;19.90;99.90;;;;;;6273272;22;20023;-82
2023/09/26 10:47:23;;;;;;;10.90;6.65;;;19.90;99.90;;;;;;6275257;22;20055;-82
2023/09/26 10:49:49;;;;;;;10.75;6.38;;;19.90;99.90;;;;;;6273064;22;20054;-82
2023/09/26 10:52:16;;;;;;;14.73;6.68;;;19.90;99.90;;;;;;6274442;22;20034;-82
2023/09/26 10:54:42;;;;;;;13.40;6.63;;;19.90;99.90;;;;;;6273976;22;20023;-82
2023/09/26 10:57:16;;;;;;;10.98;6.07;;;19.90;99.90;;;;;;6272735;22;20447;-84
2023/09/26 10:59:42;;;;;;;11.63;5.93;;;20.00;99.90;;;;;;6274177;22;20019;-83
2023/09/26 11:02:09;;;;;;;10.88;6.38;;;20.00;99.90;;;;;;6292301;22;20019;-83
2023/09/26 11:04:35;;;;;;;10.98;5.95;;;20.00;99.90;;;;;;6306997;22;20396;-83
2023/09/26 11:07:05;;;;;;;10.75;6.13;;;20.10;99.90;;;;;;6307371;22;20018;-83
2023/09/26 11:09:33;;;;;;;11.88;5.88;;;20.30;99.90;;;;;;6307194;22;20011;-84
2023/09/26 11:11:59;;;;;;;11.13;6.22;;;20.40;99.90;;;;;;6306757;22;20094;-83
2023/09/26 11:14:28;;;;;;;11.90;5.95;;;20.50;99.90;;;;;;6306922;22;20015;-83
2023/09/26 11:16:54;;;;;;;10.27;6.10;;;20.60;99.90;;;;;;6307161;22;20402;-83
2023/09/26 11:19:23;;;;;;;10.75;5.75;;;20.70;99.90;;;;;;6306299;22;20039;-85
2023/09/26 11:21:49;;;;;;;9.95;5.70;;;21.00;99.90;;;;;;6307355;22;20015;-84
2023/09/26 11:24:32;;;;;;;12.27;5.78;;;21.00;99.90;;;;;;6306826;22;20465;-84
2023/09/26 11:27:11;;;;;;;11.02;5.30;;;21.10;99.90;;;;;;6306737;22;20015;-84
2023/09/26 11:29:37;;;;;;;10.60;5.40;;;21.20;99.90;;;;;;6306731;22;20100;-84
2023/09/26 11:32:04;;;;;;;9.77;5.22;;;21.30;99.90;;;;;;6306311;22;20019;-85
2023/09/26 11:34:30;;;;;;;11.45;5.13;;;21.30;99.90;;;;;;6307284;22;20744;-84
2023/09/26 11:36:57;;;;;;;10.95;4.82;;;21.30;99.90;;;;;;6307063;22;20015;-85
2023/09/26 11:39:23;;;;;;;9.85;4.97;;;21.40;99.90;;;;;;6306216;22;20801;-85
2023/09/26 11:42:06;;;;;;;8.82;4.30;;;21.50;99.90;;;;;;6307127;22;20022;-85
2023/09/26 11:44:32;;;;;;;9.57;4.60;;;21.60;99.90;;;;;;6306757;22;20090;-85
2023/09/26 11:46:58;;;;;;;8.68;4.20;;;21.80;99.90;;;;;;6307291;22;20108;-85
2023/09/26 11:49:24;;;;;;;9.40;4.47;;;21.90;99.90;;;;;;6306305;22;20029;-85
2023/09/26 11:51:52;;;;;;;10.70;4.95;;;21.90;99.90;;;;;;6308473;22;20511;-86
2023/09/26 11:54:18;;;;;;;9.52;4.15;;;21.80;99.90;;;;;;6305543;22;20454;-85
2023/09/26 11:56:45;;;;;;;9.30;4.47;;;21.70;99.90;;;;;;6307005;22;20019;-86
2023/09/26 11:59:11;;;;;;;10.15;4.40;;;21.70;99.90;;;;;;6306129;22;20015;-85
2023/09/26 12:01:42;;;;;;;10.95;4.68;;;21.60;99.90;;;;;;6306579;22;20028;-85
2023/09/26 12:08:02;;;;;;;11.98;4.68;;;21.50;99.90;;;;;;6307874;22;20085;-84
2023/09/26 12:10:38;;;;;;;9.02;3.97;;;21.50;99.90;;;;;;6306749;22;20447;-86
2023/09/26 12:13:06;;;;;;;9.32;4.03;;;21.60;99.90;;;;;;6305528;22;20011;-85
2023/09/26 12:15:32;;;;;;;11.23;4.03;;;21.50;99.90;;;;;;6305844;22;20086;-83
2023/09/26 12:17:59;;;;;;;9.55;3.88;;;21.50;99.90;;;;;;6306793;22;20481;-83
2023/09/26 12:20:25;;;;;;;10.65;4.20;;;21.50;99.90;;;;;;6306069;22;20057;-83
2023/09/26 12:22:57;;;;;;;8.40;4.00;;;21.50;99.90;;;;;;6306164;22;20015;-83
2023/09/26 12:25:27;;;;;;;10.30;4.18;;;22.40;99.90;;;;;;6306040;22;20350;-84
2023/09/26 12:27:53;;;;;;;8.68;3.70;;;21.80;99.90;;;;;;6306564;22;20011;-83
2023/09/26 12:30:20;;;;;;;8.93;3.90;;;22.00;99.90;;;;;;6304095;22;20011;-83
2023/09/26 12:32:46;;;;;;;9.90;4.35;;;22.00;99.90;;;;;;6306125;22;20019;-83
2023/09/26 12:35:12;;;;;;;9.60;4.10;;;22.10;99.90;;;;;;6305078;22;20050;-83
2023/09/26 12:37:38;;;;;;;8.27;4.15;;;22.20;99.90;;;;;;6305696;22;20019;-83
2023/09/26 12:40:13;;;;;;;9.35;4.15;;;22.20;99.90;;;;;;6305777;22;20102;-83
2023/09/26 12:42:41;;;;;;;8.95;4.30;;;22.20;99.90;;;;;;6305908;22;20082;-83